createdAt,value
2019-01-04T00:01:51.605Z,-0.82
2019-01-04T00:04:31.988Z,-0.83
2019-01-04T00:07:03.178Z,-0.92
2019-01-04T00:09:34.129Z,-0.96
2019-01-04T00:12:06.139Z,-0.95
2019-01-04T00:14:37.375Z,-0.93
2019-01-04T00:17:08.619Z,-0.86
2019-01-04T00:19:39.820Z,-0.94
2019-01-04T00:22:10.738Z,-0.93
2019-01-04T00:24:41.649Z,-0.86
2019-01-04T00:27:12.592Z,-0.95
2019-01-04T00:29:43.698Z,-0.91
2019-01-04T00:32:14.642Z,-0.92
2019-01-04T00:34:45.560Z,-0.93
2019-01-04T00:37:16.442Z,-0.86
2019-01-04T00:39:47.349Z,-0.82
2019-01-04T00:42:18.267Z,-0.84
2019-01-04T00:44:49.163Z,-0.83
2019-01-04T00:47:20.110Z,-0.80
2019-01-04T00:49:51.014Z,-0.83
2019-01-04T00:52:21.925Z,-0.85
2019-01-04T00:54:55.350Z,-0.84
2019-01-04T00:58:47.593Z,-0.82
2019-01-04T01:02:25.485Z,-0.78
2019-01-04T01:06:10.827Z,-0.80
2019-01-04T01:09:37.910Z,-0.82
2019-01-04T01:13:10.351Z,-0.87
2019-01-04T01:16:46.986Z,-0.91
2019-01-04T01:20:08.838Z,-0.94
2019-01-04T01:23:36.619Z,-0.91
2019-01-04T01:26:55.660Z,-0.91
2019-01-04T01:30:50.136Z,-0.98
2019-01-04T01:34:07.253Z,-0.97
2019-01-04T01:37:36.251Z,-0.94
2019-01-04T01:41:10.450Z,-0.87
2019-01-04T01:44:31.059Z,-0.94
2019-01-04T01:47:24.765Z,-0.98
2019-01-04T01:50:57.183Z,-0.93
2019-01-04T01:53:49.530Z,-0.82
2019-01-04T01:56:20.458Z,-0.84
2019-01-04T01:58:51.335Z,-0.95
2019-01-04T02:01:22.222Z,-1.00
2019-01-04T02:03:53.158Z,-0.98
2019-01-04T02:06:25.091Z,-1.00
2019-01-04T02:08:56.387Z,-1.05
2019-01-04T02:11:27.611Z,-0.98
2019-01-04T02:13:58.515Z,-0.94
2019-01-04T02:16:29.518Z,-0.99
2019-01-04T02:19:00.405Z,-0.96
2019-01-04T02:21:31.415Z,-0.95
2019-01-04T02:24:02.590Z,-0.97
2019-01-04T02:26:33.466Z,-1.00
2019-01-04T02:29:04.376Z,-1.06
2019-01-04T02:31:35.257Z,-1.14
2019-01-04T02:34:06.223Z,-1.15
2019-01-04T02:36:37.431Z,-1.15
2019-01-04T02:39:08.783Z,-1.13
2019-01-04T02:41:39.716Z,-1.11
2019-01-04T02:44:10.670Z,-1.15
2019-01-04T02:46:42.261Z,-1.24
2019-01-04T02:49:13.420Z,-1.21
2019-01-04T02:51:44.423Z,-1.25
2019-01-04T02:54:15.364Z,-1.33
2019-01-04T02:56:46.275Z,-1.37
2019-01-04T02:59:17.211Z,-1.37
2019-01-04T03:01:48.256Z,-1.36
2019-01-04T03:04:19.225Z,-1.37
2019-01-04T03:06:50.231Z,-1.39
2019-01-04T03:09:21.124Z,-1.38
2019-01-04T03:11:52.256Z,-1.31
2019-01-04T03:14:23.135Z,-1.34
2019-01-04T03:16:54.038Z,-1.38
2019-01-04T03:19:25.254Z,-1.32
2019-01-04T03:21:56.136Z,-1.26
2019-01-04T03:24:27.086Z,-1.25
2019-01-04T03:26:58.300Z,-1.23
2019-01-04T03:29:29.209Z,-1.29
2019-01-04T03:32:00.228Z,-1.25
2019-01-04T03:34:31.116Z,-1.20
2019-01-04T03:37:02.067Z,-1.23
2019-01-04T03:39:32.975Z,-1.25
2019-01-04T03:42:03.932Z,-1.12
2019-01-04T03:44:34.855Z,-1.19
2019-01-04T03:47:05.738Z,-1.12
2019-01-04T03:49:36.685Z,-1.09
2019-01-04T03:52:07.593Z,-1.06
2019-01-04T03:54:38.561Z,-0.96
2019-01-04T03:57:09.492Z,-1.06
2019-01-04T03:59:40.478Z,-0.98
2019-01-04T04:02:11.430Z,-1.06
2019-01-04T04:04:42.342Z,-1.03
2019-01-04T04:07:13.261Z,-0.90
2019-01-04T04:09:44.246Z,-0.84
2019-01-04T04:12:15.131Z,-0.79
2019-01-04T04:14:46.064Z,-0.73
2019-01-04T04:17:16.998Z,-0.67
2019-01-04T04:19:48.099Z,-0.61
2019-01-04T04:22:19.303Z,-0.51
2019-01-04T04:24:50.861Z,-0.51
2019-01-04T04:27:21.777Z,-0.45
2019-01-04T04:29:52.659Z,-0.31
2019-01-04T04:32:23.567Z,-0.27
2019-01-04T04:34:54.491Z,-0.21
2019-01-04T04:37:25.409Z,-0.26
2019-01-04T04:39:56.368Z,-0.18
2019-01-04T04:42:27.260Z,-0.10
2019-01-04T04:44:58.148Z,-0.02
2019-01-04T04:47:29.061Z,-0.01
2019-01-04T04:49:59.971Z,0.03
2019-01-04T04:52:30.902Z,0.11
2019-01-04T04:55:01.839Z,0.26
2019-01-04T04:57:32.700Z,0.24
2019-01-04T05:00:03.616Z,0.38
2019-01-04T05:02:34.503Z,0.36
2019-01-04T05:05:05.465Z,0.48
2019-01-04T05:07:36.353Z,0.56
2019-01-04T05:10:07.316Z,0.59
2019-01-04T05:12:38.230Z,0.70
2019-01-04T05:15:09.128Z,0.70
2019-01-04T05:17:40.177Z,0.62
2019-01-04T05:20:11.121Z,0.60
2019-01-04T05:22:41.983Z,0.69
2019-01-04T05:25:12.874Z,0.66
2019-01-04T05:27:43.776Z,0.77
2019-01-04T05:30:14.711Z,0.79
2019-01-04T05:32:45.595Z,0.89
2019-01-04T05:35:16.479Z,0.92
2019-01-04T05:37:47.420Z,0.99
2019-01-04T05:40:18.316Z,0.97
2019-01-04T05:42:49.233Z,0.96
2019-01-04T05:45:20.105Z,0.93
2019-01-04T05:47:51.081Z,0.94
2019-01-04T05:50:22.260Z,1.08
2019-01-04T05:52:53.268Z,0.96
2019-01-04T05:55:24.411Z,0.91
2019-01-04T05:57:55.622Z,0.96
2019-01-04T06:00:26.488Z,1.08
2019-01-04T06:02:57.580Z,1.11
2019-01-04T06:05:29.125Z,1.09
2019-01-04T06:08:00.347Z,1.04
2019-01-04T06:10:31.510Z,1.08
2019-01-04T06:13:02.462Z,1.07
2019-01-04T06:15:33.379Z,1.14
2019-01-04T06:18:04.559Z,1.12
2019-01-04T06:20:35.471Z,1.28
2019-01-04T06:23:06.340Z,1.32
2019-01-04T06:25:37.223Z,1.31
2019-01-04T06:28:08.121Z,1.43
2019-01-04T06:30:39.019Z,1.55
2019-01-04T06:33:09.986Z,1.44
2019-01-04T06:35:40.878Z,1.50
2019-01-04T06:38:11.760Z,1.49
2019-01-04T06:40:42.650Z,1.49
2019-01-04T06:43:13.827Z,1.58
2019-01-04T06:45:45.037Z,1.61
2019-01-04T06:48:15.909Z,1.49
2019-01-04T06:50:46.789Z,1.59
2019-01-04T06:53:17.690Z,1.56
2019-01-04T06:55:59.854Z,1.65
2019-01-04T06:58:30.842Z,1.59
2019-01-04T07:01:01.732Z,1.53
2019-01-04T07:03:32.648Z,1.49
2019-01-04T07:06:03.585Z,1.53
2019-01-04T07:08:34.472Z,1.55
2019-01-04T07:11:05.455Z,1.59
2019-01-04T07:13:36.346Z,1.68
2019-01-04T07:16:07.270Z,1.67
2019-01-04T07:18:38.147Z,1.70
2019-01-04T07:21:09.037Z,1.78
2019-01-04T07:23:39.951Z,1.79
2019-01-04T07:26:10.866Z,1.83
2019-01-04T07:28:41.867Z,1.76
2019-01-04T07:31:12.735Z,1.74
2019-01-04T07:33:43.612Z,1.76
2019-01-04T07:36:14.810Z,1.79
2019-01-04T07:38:45.693Z,1.79
2019-01-04T07:41:16.608Z,1.74
2019-01-04T07:43:47.515Z,1.75
2019-01-04T07:46:18.408Z,1.92
2019-01-04T07:48:49.317Z,1.83
2019-01-04T07:51:20.210Z,1.88
2019-01-04T07:53:51.228Z,1.91
2019-01-04T07:56:22.201Z,1.91
2019-01-04T07:58:53.367Z,1.95
2019-01-04T08:01:24.550Z,1.96
2019-01-04T08:03:55.811Z,2.00
2019-01-04T08:06:26.737Z,2.01
2019-01-04T08:08:57.603Z,2.06
2019-01-04T08:11:28.521Z,1.93
2019-01-04T08:13:59.448Z,1.95
2019-01-04T08:16:30.944Z,2.03
2019-01-04T08:19:02.470Z,2.03
2019-01-04T08:21:33.385Z,2.03
2019-01-04T08:24:04.355Z,2.13
2019-01-04T08:26:35.273Z,2.20
2019-01-04T08:29:06.443Z,2.17
2019-01-04T08:31:37.391Z,2.18
2019-01-04T08:34:08.332Z,2.22
2019-01-04T08:36:39.205Z,2.30
2019-01-04T08:39:10.122Z,2.33
2019-01-04T08:41:41.005Z,2.40
2019-01-04T08:44:11.949Z,2.35
2019-01-04T08:46:42.825Z,2.36
2019-01-04T08:49:13.713Z,2.52
2019-01-04T08:51:44.603Z,2.52
2019-01-04T08:54:15.492Z,2.53
2019-01-04T08:56:46.417Z,2.49
2019-01-04T08:59:17.308Z,2.45
2019-01-04T09:01:48.321Z,2.57
2019-01-04T09:04:19.277Z,2.49
2019-01-04T09:06:50.479Z,2.58
2019-01-04T09:09:21.682Z,2.54
2019-01-04T09:11:52.601Z,2.61
2019-01-04T09:14:23.626Z,2.58
2019-01-04T09:16:54.512Z,2.62
2019-01-04T09:19:25.394Z,2.68
2019-01-04T09:21:56.302Z,2.70
2019-01-04T09:24:27.184Z,2.76
2019-01-04T09:26:58.152Z,2.78
2019-01-04T09:29:29.345Z,2.72
2019-01-04T09:32:00.275Z,2.77
2019-01-04T09:34:31.206Z,2.79
2019-01-04T09:37:02.372Z,2.83
2019-01-04T09:39:33.287Z,2.79
2019-01-04T09:42:16.253Z,2.82
2019-01-04T09:44:47.869Z,2.83
2019-01-04T09:47:19.035Z,2.94
2019-01-04T09:49:49.912Z,2.98
2019-01-04T09:52:21.119Z,2.98
2019-01-04T09:54:51.988Z,3.02
2019-01-04T09:57:23.539Z,3.00
2019-01-04T09:59:54.680Z,3.04
2019-01-04T10:02:25.568Z,3.08
2019-01-04T10:04:56.801Z,3.07
2019-01-04T10:07:27.666Z,3.11
2019-01-04T10:09:58.599Z,3.15
2019-01-04T10:12:29.493Z,3.15
2019-01-04T10:15:00.768Z,3.17
2019-01-04T10:17:31.737Z,3.09
2019-01-04T10:20:02.915Z,3.15
2019-01-04T10:22:33.823Z,3.18
2019-01-04T10:25:04.808Z,3.19
2019-01-04T10:27:35.759Z,3.21
2019-01-04T10:30:07.438Z,3.28
2019-01-04T10:32:38.318Z,3.32
2019-01-04T10:35:10.633Z,3.28
2019-01-04T10:37:41.788Z,3.28
2019-01-04T10:40:12.759Z,3.30
2019-01-04T10:42:53.625Z,3.32
2019-01-04T10:45:24.505Z,3.34
2019-01-04T10:47:55.719Z,3.31
2019-01-04T10:50:26.590Z,3.37
2019-01-04T10:52:57.482Z,3.49
2019-01-04T10:55:28.382Z,3.47
2019-01-04T10:57:59.268Z,3.53
2019-01-04T11:00:30.250Z,3.56
2019-01-04T11:03:01.122Z,3.48
2019-01-04T11:05:32.006Z,3.56
2019-01-04T11:08:02.904Z,3.58
2019-01-04T11:10:34.695Z,3.62
2019-01-04T11:13:05.693Z,3.44
2019-01-04T11:15:36.579Z,3.54
2019-01-04T11:18:09.987Z,3.49
2019-01-04T11:20:45.851Z,3.55
2019-01-04T11:23:49.199Z,3.51
2019-01-04T11:26:38.951Z,3.65
2019-01-04T11:30:03.560Z,3.70
2019-01-04T11:33:00.950Z,3.61
2019-01-04T11:36:47.009Z,3.72
2019-01-04T11:40:02.195Z,3.73
2019-01-04T11:43:23.507Z,3.72
2019-01-04T11:46:27.561Z,3.81
2019-01-04T11:50:01.368Z,3.80
2019-01-04T11:52:48.712Z,3.69
2019-01-04T11:55:19.659Z,3.63
2019-01-04T11:57:50.545Z,3.68
2019-01-04T12:00:21.546Z,3.69
2019-01-04T12:02:52.471Z,3.76
2019-01-04T12:05:23.410Z,3.82
2019-01-04T12:07:54.601Z,3.81
2019-01-04T12:10:25.482Z,3.77
2019-01-04T12:12:56.413Z,3.77
2019-01-04T12:15:27.321Z,3.79
2019-01-04T12:17:58.316Z,3.92
2019-01-04T12:20:29.252Z,3.80
2019-01-04T12:23:00.145Z,3.76
2019-01-04T12:25:31.062Z,3.74
2019-01-04T12:28:01.982Z,3.70
2019-01-04T12:30:32.903Z,3.67
2019-01-04T12:33:03.867Z,3.70
2019-01-04T12:35:35.069Z,3.69
2019-01-04T12:38:06.915Z,3.67
2019-01-04T12:40:39.136Z,3.66
2019-01-04T12:43:10.055Z,3.69
2019-01-04T12:45:40.977Z,3.68
2019-01-04T12:48:11.847Z,3.66
2019-01-04T12:50:42.778Z,3.64
2019-01-04T12:53:13.709Z,3.57
2019-01-04T12:55:44.668Z,3.57
2019-01-04T12:58:15.596Z,3.65
2019-01-04T13:00:46.475Z,3.55
2019-01-04T13:03:17.428Z,3.56
2019-01-04T13:05:48.627Z,3.62
2019-01-04T13:08:19.663Z,3.69
2019-01-04T13:10:50.628Z,3.59
2019-01-04T13:13:21.506Z,3.68
2019-01-04T13:15:52.435Z,3.70
2019-01-04T13:18:23.358Z,3.72
2019-01-04T13:20:54.277Z,3.77
2019-01-04T13:23:25.181Z,3.62
2019-01-04T13:25:56.054Z,3.60
2019-01-04T13:28:27.017Z,3.72
2019-01-04T13:30:58.226Z,3.76
2019-01-04T13:33:29.195Z,3.75
2019-01-04T13:36:00.096Z,3.66
2019-01-04T13:38:30.972Z,3.64
2019-01-04T13:41:02.276Z,3.73
2019-01-04T13:43:33.148Z,3.77
2019-01-04T13:46:04.014Z,3.79
2019-01-04T13:48:34.949Z,3.77
2019-01-04T13:51:05.841Z,3.72
2019-01-04T13:53:37.070Z,3.69
2019-01-04T13:56:08.554Z,3.80
2019-01-04T13:58:39.440Z,3.77
2019-01-04T14:01:10.385Z,3.70
2019-01-04T14:03:41.317Z,3.80
2019-01-04T14:06:12.625Z,3.72
2019-01-04T14:08:43.588Z,3.83
2019-01-04T14:11:14.760Z,3.89
2019-01-04T14:13:45.682Z,3.83
2019-01-04T14:16:16.604Z,3.86
2019-01-04T14:18:47.571Z,3.83
2019-01-04T14:21:18.489Z,3.92
2019-01-04T14:23:49.375Z,3.85
2019-01-04T14:26:20.314Z,3.90
2019-01-04T14:28:51.475Z,3.92
2019-01-04T14:31:22.437Z,3.80
2019-01-04T14:33:53.992Z,3.92
2019-01-04T14:36:24.878Z,3.90
2019-01-04T14:38:56.428Z,3.85
2019-01-04T14:41:27.330Z,3.87
2019-01-04T14:43:58.880Z,3.85
2019-01-04T14:46:30.084Z,3.88
2019-01-04T14:49:00.992Z,3.83
2019-01-04T14:51:32.233Z,3.88
2019-01-04T14:54:03.396Z,3.92
2019-01-04T14:56:40.301Z,3.89
2019-01-04T14:59:11.501Z,3.86
2019-01-04T15:01:42.486Z,3.83
2019-01-04T15:04:13.473Z,3.92
2019-01-04T15:06:44.365Z,3.87
2019-01-04T15:09:15.288Z,3.85
2019-01-04T15:11:46.454Z,3.90
2019-01-04T15:14:17.348Z,3.85
2019-01-04T15:16:48.253Z,3.85
2019-01-04T15:19:19.140Z,3.91
2019-01-04T15:21:50.108Z,3.99
2019-01-04T15:24:21.015Z,3.94
2019-01-04T15:26:51.937Z,3.97
2019-01-04T15:29:22.875Z,3.90
2019-01-04T15:31:54.154Z,3.96
2019-01-04T15:34:25.159Z,3.97
2019-01-04T15:36:56.055Z,4.05
2019-01-04T15:39:26.971Z,4.02
2019-01-04T15:41:57.875Z,3.98
2019-01-04T15:44:29.135Z,3.96
2019-01-04T15:47:00.362Z,4.04
2019-01-04T15:49:31.259Z,4.05
2019-01-04T15:52:02.136Z,4.11
2019-01-04T15:54:33.156Z,4.03
2019-01-04T15:57:04.028Z,4.10
2019-01-04T15:59:35.213Z,4.10
2019-01-04T16:02:06.223Z,4.09
2019-01-04T16:04:37.101Z,4.09
2019-01-04T16:07:08.012Z,4.05
2019-01-04T16:09:38.901Z,4.09
2019-01-04T16:12:09.915Z,4.17
2019-01-04T16:14:41.083Z,4.17
2019-01-04T16:17:12.384Z,4.15
2019-01-04T16:19:43.467Z,4.10
2019-01-04T16:22:14.419Z,4.11
2019-01-04T16:24:45.373Z,4.19
2019-01-04T16:27:16.242Z,4.17
2019-01-04T16:29:47.134Z,4.19
2019-01-04T16:32:18.071Z,4.19
2019-01-04T16:34:48.954Z,4.28
2019-01-04T16:37:19.887Z,4.22
2019-01-04T16:39:50.786Z,4.28
2019-01-04T16:42:21.672Z,4.36
2019-01-04T16:44:52.580Z,4.27
2019-01-04T16:47:23.832Z,4.31
2019-01-04T16:49:55.522Z,4.25
2019-01-04T16:52:26.427Z,4.28
2019-01-04T16:54:57.311Z,4.26
2019-01-04T16:57:28.223Z,4.27
2019-01-04T16:59:59.104Z,4.26
2019-01-04T17:02:30.064Z,4.22
2019-01-04T17:05:01.067Z,4.32
2019-01-04T17:07:32.015Z,4.27
2019-01-04T17:10:03.236Z,4.26
2019-01-04T17:12:34.145Z,4.27
2019-01-04T17:15:05.156Z,4.34
2019-01-04T17:17:36.356Z,4.35
2019-01-04T17:20:07.761Z,4.36
2019-01-04T17:22:39.287Z,4.33
2019-01-04T17:25:10.375Z,4.37
2019-01-04T17:27:41.292Z,4.50
2019-01-04T17:30:12.345Z,4.46
2019-01-04T17:32:43.267Z,4.49
2019-01-04T17:35:14.461Z,4.48
2019-01-04T17:37:45.351Z,4.38
2019-01-04T17:40:16.264Z,4.50
2019-01-04T17:42:47.153Z,4.48
2019-01-04T17:45:18.644Z,4.50
2019-01-04T17:47:49.565Z,4.62
2019-01-04T17:50:20.430Z,4.58
2019-01-04T17:52:51.409Z,4.63
2019-01-04T17:55:22.574Z,4.66
2019-01-04T17:57:53.476Z,4.67
2019-01-04T18:00:24.540Z,4.57
2019-01-04T18:03:00.677Z,4.61
2019-01-04T18:05:28.144Z,4.64
2019-01-04T18:07:59.334Z,4.61
2019-01-04T18:10:30.245Z,4.66
2019-01-04T18:13:01.153Z,4.74
2019-01-04T18:15:32.049Z,4.74
2019-01-04T18:18:02.987Z,4.72
2019-01-04T18:20:33.893Z,4.72
2019-01-04T18:23:04.855Z,4.76
2019-01-04T18:25:36.123Z,4.74
2019-01-04T18:28:07.002Z,4.85
2019-01-04T18:30:37.956Z,4.83
2019-01-04T18:33:08.926Z,4.92
2019-01-04T18:35:41.213Z,4.80
2019-01-04T18:38:12.508Z,4.87
2019-01-04T18:40:43.393Z,4.88
2019-01-04T18:43:14.472Z,4.87
2019-01-04T18:45:46.072Z,4.82
2019-01-04T18:48:16.964Z,4.89
2019-01-04T18:50:50.608Z,4.91
2019-01-04T18:53:24.008Z,4.97
2019-01-04T18:55:55.289Z,4.99
2019-01-04T18:58:26.340Z,5.03
2019-01-04T19:00:57.223Z,5.13
2019-01-04T19:03:28.140Z,5.09
2019-01-04T19:05:59.063Z,5.11
2019-01-04T19:08:29.993Z,5.06
2019-01-04T19:11:02.398Z,5.09
2019-01-04T19:13:35.442Z,5.13
2019-01-04T19:16:06.642Z,5.23
2019-01-04T19:18:37.989Z,5.16
2019-01-04T19:21:08.949Z,5.15
2019-01-04T19:23:39.897Z,5.18
2019-01-04T19:26:11.438Z,5.15
2019-01-04T19:28:42.547Z,5.25
2019-01-04T19:31:13.960Z,5.30
2019-01-04T19:33:45.297Z,5.28
2019-01-04T19:36:17.100Z,5.29
2019-01-04T19:38:49.082Z,5.32
2019-01-04T19:41:20.973Z,5.39
2019-01-04T19:43:53.771Z,5.36
2019-01-04T19:46:26.020Z,5.38
2019-01-04T19:48:58.705Z,5.39
2019-01-04T19:51:32.055Z,5.35
2019-01-04T19:54:05.409Z,5.40
2019-01-04T19:56:37.903Z,5.40
2019-01-04T19:59:10.131Z,5.42
2019-01-04T20:01:42.513Z,5.36
2019-01-04T20:04:15.094Z,5.48
2019-01-04T20:08:08.739Z,5.45
2019-01-04T20:12:38.567Z,5.43
2019-01-04T20:16:17.449Z,5.49
2019-01-04T20:19:07.208Z,5.52
2019-01-04T20:21:58.407Z,5.47
2019-01-04T20:25:08.854Z,5.40
2019-01-04T20:28:05.630Z,5.42
2019-01-04T20:30:55.673Z,5.60
2019-01-04T20:33:50.700Z,5.61
2019-01-04T20:36:47.673Z,5.65
2019-01-04T20:39:42.508Z,5.58
2019-01-04T20:42:31.729Z,5.68
2019-01-04T20:45:24.954Z,5.59
2019-01-04T20:48:21.529Z,5.62
2019-01-04T20:51:29.703Z,5.62
2019-01-04T20:54:18.293Z,5.61
2019-01-04T20:57:02.171Z,5.59
2019-01-04T20:59:52.883Z,5.60
2019-01-04T21:02:45.609Z,5.69
2019-01-04T21:05:33.963Z,5.65
2019-01-04T21:08:29.610Z,5.74
2019-01-04T21:11:37.784Z,5.64
2019-01-04T21:14:36.351Z,5.67
2019-01-04T21:17:34.941Z,5.74
2019-01-04T21:20:28.046Z,5.72
2019-01-04T21:23:16.416Z,5.74
2019-01-04T21:26:04.822Z,5.69
2019-01-04T21:28:53.231Z,5.68
2019-01-04T21:31:43.038Z,5.76
2019-01-04T21:34:31.461Z,5.75
2019-01-04T21:37:21.168Z,5.82
2019-01-04T21:40:09.656Z,5.82
2019-01-04T21:43:14.935Z,5.83
2019-01-04T21:46:03.522Z,5.80
2019-01-04T21:48:43.542Z,5.80
2019-01-04T21:51:32.043Z,5.76
2019-01-04T21:54:23.949Z,5.80
2019-01-04T21:57:13.712Z,5.79
2019-01-04T22:00:15.310Z,5.76
2019-01-04T22:03:07.871Z,5.74
2019-01-04T22:05:54.395Z,5.82
2019-01-04T22:08:38.062Z,5.86
2019-01-04T22:11:27.821Z,5.83
2019-01-04T22:14:16.533Z,5.83
2019-01-04T22:17:21.177Z,5.85
2019-01-04T22:20:28.854Z,5.80
2019-01-04T22:23:17.278Z,5.88
2019-01-04T22:26:06.067Z,5.92
2019-01-04T22:28:55.817Z,5.84
2019-01-04T22:31:44.031Z,5.77
2019-01-04T22:34:32.172Z,5.76
2019-01-04T22:37:40.099Z,5.86
2019-01-04T22:40:48.050Z,5.86
2019-01-04T22:43:36.127Z,5.86
2019-01-04T22:46:24.612Z,5.87
2019-01-04T22:49:12.746Z,5.85
2019-01-04T22:52:01.512Z,5.86
2019-01-04T22:54:49.648Z,5.88
2019-01-04T22:57:48.752Z,5.85
2019-01-04T23:00:43.086Z,5.97
2019-01-04T23:03:52.110Z,6.00
2019-01-04T23:06:40.641Z,5.93
2019-01-04T23:09:28.770Z,6.01
2019-01-04T23:12:17.137Z,5.99
2019-01-04T23:15:05.271Z,5.96
2019-01-04T23:18:04.421Z,5.91
2019-01-04T23:20:56.039Z,5.90
2019-01-04T23:23:54.977Z,6.03
2019-01-04T23:26:45.691Z,6.01
2019-01-04T23:29:44.517Z,5.96
2019-01-04T23:32:32.958Z,5.98
2019-01-04T23:35:21.419Z,6.12
2019-01-04T23:38:09.021Z,6.06
2019-01-04T23:40:57.145Z,6.03
2019-01-04T23:43:55.681Z,6.06
2019-01-04T23:46:51.418Z,6.12
2019-01-04T23:49:44.018Z,6.05
2019-01-04T23:52:36.257Z,6.04
2019-01-04T23:55:24.495Z,6.04
2019-01-04T23:58:03.629Z,6.12
